Time;durP1;ratioP1;P1;durP2;ratioP2;P2;SDS_P1;SDS_P2;PMS_P1;PMS_P2;Temp;Humidity;BMP_temperature;BMP_pressure;BME280_temperature;BME280_humidity;BME280_pressure;Samples;Min_cycle;Max_cycle;Signal;HPM_P1;HPM_P2
2022/07/16 00:03:02;;;;;;;14.93;6.75;;;;;;;17.70;57.71;99855.31;4993198;28;20485;-77
2022/07/16 00:05:27;;;;;;;15.83;6.40;;;;;;;17.71;57.81;99854.34;5007449;28;20264;-77
2022/07/16 00:07:54;;;;;;;16.00;5.33;;;;;;;17.73;57.81;99851.56;5008395;28;20212;-78
2022/07/16 00:10:20;;;;;;;10.60;5.37;;;;;;;17.69;57.84;99854.50;5009295;28;20254;-77
2022/07/16 00:12:45;;;;;;;6.23;4.87;;;;;;;17.70;57.79;99857.97;5002289;28;20601;-77
2022/07/16 00:15:11;;;;;;;13.13;6.23;;;;;;;17.73;57.81;99859.53;5004773;28;20450;-77
2022/07/16 00:17:36;;;;;;;7.87;5.30;;;;;;;17.72;57.79;99856.03;4989673;28;20219;-77
2022/07/16 00:20:03;;;;;;;6.43;4.40;;;;;;;17.73;57.87;99856.88;4988672;28;20228;-77
2022/07/16 00:22:28;;;;;;;12.53;5.57;;;;;;;17.68;57.88;99855.44;4989095;28;20211;-77
2022/07/16 00:24:54;;;;;;;9.87;4.90;;;;;;;17.60;58.24;99857.13;5003743;28;20460;-77
2022/07/16 00:27:19;;;;;;;12.83;6.10;;;;;;;17.55;58.62;99859.34;5004867;28;20247;-77
2022/07/16 00:29:44;;;;;;;10.30;7.10;;;;;;;17.36;58.97;99861.00;4972471;28;20285;-77
2022/07/16 00:32:10;;;;;;;9.43;5.20;;;;;;;17.21;59.45;99865.81;4990769;28;20539;-77
2022/07/16 00:34:35;;;;;;;13.00;6.10;;;;;;;17.12;59.75;99855.13;4990106;28;20565;-77
2022/07/16 00:37:01;;;;;;;13.63;6.83;;;;;;;17.02;60.07;99858.59;4988002;28;20262;-77
2022/07/16 00:39:26;;;;;;;10.33;5.90;;;;;;;16.99;60.17;99861.53;4988082;28;20254;-77
2022/07/16 00:41:51;;;;;;;14.17;6.90;;;;;;;17.05;60.08;99859.31;5008039;28;20562;-77
2022/07/16 00:44:19;;;;;;;13.63;6.73;;;;;;;17.08;59.88;99861.72;4996918;28;20216;-77
2022/07/16 00:46:47;;;;;;;11.33;5.10;;;;;;;17.09;59.98;99855.41;4989254;28;20200;-77
2022/07/16 00:49:14;;;;;;;7.20;5.07;;;;;;;17.08;59.80;99862.53;4987900;28;20996;-77
2022/07/16 00:51:46;;;;;;;13.20;5.53;;;;;;;17.02;59.93;99860.44;4988762;28;20974;-77
2022/07/16 00:54:12;;;;;;;9.33;5.10;;;;;;;16.92;60.26;99865.69;4981710;28;20508;-77
2022/07/16 00:56:38;;;;;;;9.70;5.50;;;;;;;16.82;60.51;99864.78;5007168;28;20483;-77
2022/07/16 00:59:04;;;;;;;7.93;5.50;;;;;;;16.78;60.56;99866.88;5006603;28;20485;-77
2022/07/16 01:01:30;;;;;;;6.77;4.47;;;;;;;16.77;60.68;99865.19;5173364;23;20876;-78
2022/07/16 01:03:55;;;;;;;8.10;5.30;;;;;;;16.84;61.15;99862.00;4985721;28;20484;-76
2022/07/16 01:06:22;;;;;;;8.13;5.70;;;;;;;16.84;60.90;99857.53;4988095;28;20244;-76
2022/07/16 01:08:49;;;;;;;5.70;5.10;;;;;;;16.84;60.89;99862.84;4988973;28;20251;-76
2022/07/16 01:11:18;;;;;;;10.10;4.67;;;;;;;16.87;60.65;99867.88;4987904;28;20892;-75
2022/07/16 01:13:46;;;;;;;6.17;4.77;;;;;;;16.91;60.38;99861.34;4992140;28;20471;-76
2022/07/16 01:16:12;;;;;;;9.33;5.70;;;;;;;16.96;60.48;99863.63;4992626;28;20538;-76
2022/07/16 01:18:39;;;;;;;6.20;4.33;;;;;;;16.96;60.04;99856.50;4976118;28;20475;-76
2022/07/16 01:21:05;;;;;;;4.83;3.80;;;;;;;16.98;59.86;99856.34;4993614;28;20508;-74
2022/07/16 01:23:31;;;;;;;6.23;4.30;;;;;;;16.98;59.46;99856.34;4994211;28;20471;-77
2022/07/16 01:25:57;;;;;;;5.13;4.43;;;;;;;16.95;59.28;99852.13;4955705;28;20488;-76
2022/07/16 01:28:23;;;;;;;5.10;4.60;;;;;;;16.89;59.17;99854.50;4973306;28;20805;-77
2022/07/16 01:30:49;;;;;;;5.20;4.70;;;;;;;16.85;59.19;99856.59;4976367;28;20278;-77
2022/07/16 01:33:41;;;;;;;6.70;4.70;;;;;;;16.82;59.19;99856.81;4979108;28;20256;-76
2022/07/16 01:36:08;;;;;;;5.30;4.80;;;;;;;16.81;59.20;99849.84;4972048;28;20503;-76
2022/07/16 01:38:36;;;;;;;6.00;4.60;;;;;;;16.74;58.97;99852.16;4968726;28;20496;-77
2022/07/16 01:41:01;;;;;;;4.70;4.20;;;;;;;16.69;59.16;99856.16;4974311;28;20578;-77
2022/07/16 01:43:28;;;;;;;6.43;4.40;;;;;;;16.64;59.05;99855.72;4974929;28;20550;-76
2022/07/16 01:45:55;;;;;;;4.30;3.57;;;;;;;16.62;59.22;99860.31;4974666;28;20200;-75
2022/07/16 01:48:22;;;;;;;6.00;4.40;;;;;;;16.62;59.02;99855.84;4974815;28;20860;-77
2022/07/16 01:50:48;;;;;;;6.67;4.10;;;;;;;16.59;59.05;99864.06;4974702;28;20472;-74
2022/07/16 01:53:13;;;;;;;4.60;4.07;;;;;;;16.55;59.09;99855.53;4974955;28;20479;-77
2022/07/16 01:55:40;;;;;;;4.43;4.03;;;;;;;16.54;59.14;99864.44;4974501;28;20531;-77
2022/07/16 01:58:08;;;;;;;4.90;3.73;;;;;;;16.46;59.03;99861.59;4974781;28;20226;-77
2022/07/16 02:00:35;;;;;;;5.70;4.70;;;;;;;16.38;59.23;99848.97;4974360;28;20515;-77
2022/07/16 02:03:01;;;;;;;5.77;4.53;;;;;;;16.31;59.36;99855.78;4971832;28;20493;-77
2022/07/16 02:05:26;;;;;;;6.50;4.17;;;;;;;16.14;59.68;99862.47;4974219;28;20650;-76
2022/07/16 02:07:51;;;;;;;5.07;4.40;;;;;;;16.08;59.78;99868.28;4957641;28;20204;-75
2022/07/16 02:10:18;;;;;;;5.27;4.83;;;;;;;16.07;59.90;99871.91;4990431;28;20224;-74
2022/07/16 02:12:43;;;;;;;5.17;4.47;;;;;;;16.06;59.75;99872.84;4993124;28;20713;-76
2022/07/16 02:15:09;;;;;;;4.73;4.33;;;;;;;16.06;59.59;99870.22;4992531;28;20458;-77
2022/07/16 02:17:36;;;;;;;4.00;3.60;;;;;;;16.04;59.28;99866.88;4992595;28;20574;-77
2022/07/16 02:20:04;;;;;;;7.00;4.50;;;;;;;16.01;59.23;99869.75;4991751;28;20458;-77
2022/07/16 02:22:30;;;;;;;4.80;4.00;;;;;;;16.01;59.32;99872.41;4993380;28;20470;-76
2022/07/16 02:24:56;;;;;;;3.83;3.53;;;;;;;16.03;58.92;99869.63;4991894;28;20467;-77
2022/07/16 02:27:21;;;;;;;8.70;4.60;;;;;;;16.01;58.79;99869.75;4993051;28;20203;-77
2022/07/16 02:29:46;;;;;;;3.80;3.50;;;;;;;16.03;58.73;99869.63;4986477;28;20451;-76
2022/07/16 02:32:12;;;;;;;4.80;3.50;;;;;;;16.06;58.52;99867.56;4974233;28;20208;-77
2022/07/16 02:34:38;;;;;;;6.57;4.00;;;;;;;16.06;58.48;99870.22;4973745;28;20211;-77
2022/07/16 02:37:03;;;;;;;6.60;3.87;;;;;;;16.02;58.20;99874.09;4973834;28;20248;-76
2022/07/16 02:39:28;;;;;;;4.00;3.50;;;;;;;16.01;58.16;99867.09;4974608;28;20212;-77
2022/07/16 02:41:54;;;;;;;4.40;4.00;;;;;;;16.02;57.96;99874.09;4973353;28;20693;-75
2022/07/16 02:44:19;;;;;;;6.57;4.00;;;;;;;15.97;57.77;99870.16;4973334;28;20207;-76
2022/07/16 02:46:45;;;;;;;4.30;3.90;;;;;;;15.84;57.99;99871.13;4974031;28;20203;-77
2022/07/16 02:49:10;;;;;;;6.73;3.20;;;;;;;15.81;58.00;99862.59;4972193;28;20225;-76
2022/07/16 02:51:35;;;;;;;4.20;3.80;;;;;;;15.85;57.64;99871.97;4972587;28;20928;-77
2022/07/16 02:54:01;;;;;;;5.80;3.57;;;;;;;15.85;57.33;99871.97;4972866;28;20208;-75
2022/07/16 02:56:26;;;;;;;4.37;3.70;;;;;;;15.84;57.40;99875.59;4972545;28;20589;-77
2022/07/16 02:58:52;;;;;;;7.80;4.37;;;;;;;15.79;57.35;99868.00;4973607;28;20212;-76
2022/07/16 03:01:17;;;;;;;3.57;3.27;;;;;;;15.76;57.61;99876.22;4972480;28;20243;-77
2022/07/16 03:03:42;;;;;;;5.20;4.30;;;;;;;15.78;57.76;99881.41;4971063;28;20493;-76
2022/07/16 03:06:08;;;;;;;4.30;3.90;;;;;;;15.72;57.79;99877.44;4973031;28;20212;-74
2022/07/16 03:08:33;;;;;;;6.23;4.70;;;;;;;15.65;57.78;99879.69;4973189;28;20204;-77
2022/07/16 03:10:59;;;;;;;5.00;3.70;;;;;;;15.61;57.83;99883.56;4988667;28;20223;-77
2022/07/16 03:13:24;;;;;;;3.83;3.53;;;;;;;15.57;57.81;99891.88;4991582;28;20218;-77
2022/07/16 03:15:50;;;;;;;4.07;3.47;;;;;;;15.45;58.14;99885.75;4992003;28;20234;-76
2022/07/16 03:18:15;;;;;;;4.37;3.50;;;;;;;15.35;58.30;99892.75;4974398;28;20300;-75
2022/07/16 03:20:41;;;;;;;6.53;4.00;;;;;;;15.27;58.49;99883.59;4993029;28;20233;-77
2022/07/16 03:23:06;;;;;;;5.17;4.37;;;;;;;15.30;58.42;99890.44;4975366;28;20219;-76
2022/07/16 03:25:32;;;;;;;4.83;4.40;;;;;;;15.30;58.59;99892.25;4991820;28;20215;-77
2022/07/16 03:27:57;;;;;;;4.23;3.83;;;;;;;15.31;58.75;99899.22;4992167;28;20222;-77
2022/07/16 03:30:23;;;;;;;5.10;4.60;;;;;;;15.35;58.97;99905.97;4961576;28;20568;-75
2022/07/16 03:32:48;;;;;;;4.90;4.50;;;;;;;15.38;59.32;99900.44;4973084;28;20477;-77
2022/07/16 03:35:14;;;;;;;6.13;4.53;;;;;;;15.34;59.38;99898.97;4966836;28;20302;-77
2022/07/16 03:40:25;;;;;;;5.93;4.33;;;;;;;15.17;59.90;99898.50;4973397;28;20222;-77
2022/07/16 03:42:52;;;;;;;4.63;4.23;;;;;;;15.04;60.62;99905.69;4973760;28;20692;-76
2022/07/16 03:45:17;;;;;;;5.80;5.00;;;;;;;14.93;61.10;99910.97;4973160;28;20819;-77
2022/07/16 03:47:43;;;;;;;7.77;5.93;;;;;;;14.84;61.59;99904.59;4974089;28;20962;-78
2022/07/16 03:50:09;;;;;;;6.10;5.20;;;;;;;14.81;61.79;99904.84;4972964;28;20778;-77
2022/07/16 03:52:34;;;;;;;8.23;4.17;;;;;;;14.76;61.81;99907.81;4972976;28;20650;-77
2022/07/16 03:55:00;;;;;;;5.17;4.50;;;;;;;14.71;62.25;99912.63;4973364;28;20506;-77
2022/07/16 03:57:25;;;;;;;9.53;6.20;;;;;;;14.67;62.63;99916.47;4972570;28;20862;-77
2022/07/16 03:59:51;;;;;;;6.13;5.43;;;;;;;14.66;62.70;99917.41;4972988;28;20205;-77
2022/07/16 04:02:16;;;;;;;5.60;4.97;;;;;;;14.67;62.59;99921.75;4959256;28;20623;-75
2022/07/16 04:04:41;;;;;;;5.20;4.77;;;;;;;14.71;62.73;99922.38;4971799;28;20222;-77
2022/07/16 04:07:07;;;;;;;10.90;4.77;;;;;;;14.72;62.52;99924.91;4969574;28;20320;-74
2022/07/16 04:09:33;;;;;;;7.30;4.30;;;;;;;14.77;62.38;99922.75;4977132;28;20216;-77
2022/07/16 04:11:58;;;;;;;5.50;5.03;;;;;;;14.77;62.69;99924.53;4989536;28;20472;-77
2022/07/16 04:14:25;;;;;;;10.07;5.20;;;;;;;14.76;62.57;99928.97;4990917;28;20288;-76
2022/07/16 04:16:50;;;;;;;6.15;4.90;;;;;;;14.76;62.78;99928.97;4991752;28;20307;-77
2022/07/16 04:19:15;;;;;;;7.33;6.50;;;;;;;14.72;63.39;99929.34;4987913;28;20219;-75
2022/07/16 04:21:41;;;;;;;6.00;5.40;;;;;;;14.53;64.52;99937.81;4972752;28;20263;-77
2022/07/16 04:24:06;;;;;;;6.17;5.57;;;;;;;14.34;65.20;99933.88;4973062;28;20209;-76
2022/07/16 04:26:31;;;;;;;6.30;5.80;;;;;;;14.21;65.84;99935.72;4981682;28;21212;-76
2022/07/16 04:28:57;;;;;;;5.80;5.33;;;;;;;14.16;65.87;99936.06;4992370;28;20217;-77
2022/07/16 04:31:23;;;;;;;7.10;5.37;;;;;;;14.14;65.87;99942.41;4988744;28;20631;-78
2022/07/16 04:33:49;;;;;;;5.70;4.97;;;;;;;14.19;65.60;99936.81;4985599;28;20204;-79
2022/07/16 04:36:14;;;;;;;5.57;5.07;;;;;;;14.16;65.53;99937.88;4991431;28;20224;-80
2022/07/16 04:38:40;;;;;;;5.00;4.50;;;;;;;14.14;65.45;99943.25;4990088;28;20561;-79
2022/07/16 04:41:05;;;;;;;6.40;5.10;;;;;;;14.15;65.31;99946.75;4971183;28;20229;-79
2022/07/16 04:43:31;;;;;;;8.47;5.93;;;;;;;14.15;65.36;99944.13;4961780;28;20193;-79
2022/07/16 04:45:56;;;;;;;7.07;6.07;;;;;;;14.21;65.15;99946.31;4989263;28;20684;-79
2022/07/16 04:48:22;;;;;;;6.27;5.20;;;;;;;14.32;64.84;99948.16;4966264;28;20213;-79
2022/07/16 04:50:47;;;;;;;8.23;5.67;;;;;;;14.47;63.99;99956.72;4987076;28;20285;-79
2022/07/16 04:53:13;;;;;;;6.17;5.57;;;;;;;14.65;63.68;99947.47;4982926;28;20778;-79
2022/07/16 04:55:38;;;;;;;4.60;4.17;;;;;;;14.94;62.75;99949.72;4987356;28;20745;-79
2022/07/16 04:58:04;;;;;;;6.40;4.70;;;;;;;15.52;61.23;99947.81;4998035;28;20230;-79
2022/07/16 05:00:29;;;;;;;6.33;5.67;;;;;;;16.73;57.65;99942.47;4997909;28;20752;-80
2022/07/16 05:02:58;;;;;;;6.88;5.50;;;;;;;18.23;53.16;99948.03;4980436;28;20966;-79
2022/07/16 05:05:32;;;;;;;5.90;5.10;;;;;;;19.84;48.71;99929.50;4988750;28;20214;-79
2022/07/16 05:07:59;;;;;;;5.30;4.20;;;;;;;20.94;45.84;99937.19;4983095;28;20467;-79
2022/07/16 05:10:26;;;;;;;8.37;5.60;;;;;;;21.81;43.38;99929.16;4974089;28;21014;-80
2022/07/16 05:12:52;;;;;;;6.33;5.17;;;;;;;22.36;42.19;99927.78;4975342;28;20463;-80
2022/07/16 05:15:18;;;;;;;5.17;4.67;;;;;;;22.95;40.89;99923.06;4974161;28;20448;-79
2022/07/16 05:17:43;;;;;;;5.97;4.90;;;;;;;23.42;39.50;99919.66;4992137;28;20954;-80
2022/07/16 05:20:10;;;;;;;9.60;4.50;;;;;;;24.12;38.26;99929.56;4994800;28;20453;-80
2022/07/16 05:22:35;;;;;;;4.80;4.30;;;;;;;24.71;37.06;99912.88;4988034;28;20218;-80
2022/07/16 05:25:01;;;;;;;3.90;3.50;;;;;;;25.23;35.75;99912.03;4984292;28;20471;-80
2022/07/16 05:27:26;;;;;;;6.37;4.47;;;;;;;25.67;34.67;99913.84;4978054;28;20218;-80
2022/07/16 05:29:52;;;;;;;4.60;3.63;;;;;;;26.30;33.44;99911.44;4982726;28;20233;-80
2022/07/16 05:32:17;;;;;;;4.80;3.97;;;;;;;26.74;32.16;99920.38;4976071;28;20488;-80
2022/07/16 05:34:42;;;;;;;7.47;4.30;;;;;;;26.89;31.77;99913.84;4983016;28;20256;-80
2022/07/16 05:37:08;;;;;;;7.03;4.00;;;;;;;27.25;31.07;99914.75;4983431;28;20765;-80
2022/07/16 05:39:33;;;;;;;5.83;4.10;;;;;;;27.54;30.93;99913.63;4987923;28;20205;-80
2022/07/16 05:41:58;;;;;;;5.33;3.70;;;;;;;27.85;30.04;99918.56;4997348;28;20976;-80
2022/07/16 05:44:24;;;;;;;5.33;4.57;;;;;;;27.53;30.27;99914.69;4994830;28;20409;-80
2022/07/16 05:46:50;;;;;;;4.70;3.33;;;;;;;27.64;30.05;99913.28;4995158;28;20489;-81
2022/07/16 05:49:15;;;;;;;3.87;3.57;;;;;;;27.95;29.67;99915.47;4984144;28;20231;-80
2022/07/16 05:51:40;;;;;;;6.33;3.60;;;;;;;28.53;28.37;99915.00;4983801;28;20237;-81
2022/07/16 05:54:06;;;;;;;4.17;3.83;;;;;;;29.00;27.63;99915.78;4977709;28;20612;-80
2022/07/16 05:56:32;;;;;;;4.90;3.47;;;;;;;29.36;27.19;99919.91;4988317;28;20253;-80
2022/07/16 05:59:02;;;;;;;7.07;3.83;;;;;;;29.73;26.35;99913.78;4992133;28;20279;-80
2022/07/16 06:01:28;;;;;;;4.07;3.53;;;;;;;30.17;25.84;99912.06;4975889;28;20726;-80
2022/07/16 06:03:54;;;;;;;4.57;3.40;;;;;;;30.36;25.47;99914.91;4981720;28;20462;-80
2022/07/16 06:06:19;;;;;;;4.33;3.27;;;;;;;30.33;25.47;99918.03;4995177;28;20468;-80
2022/07/16 06:08:44;;;;;;;4.40;3.40;;;;;;;30.73;25.33;99917.72;4994324;28;20644;-80
2022/07/16 06:11:10;;;;;;;5.13;3.80;;;;;;;31.18;24.17;99912.09;4975249;28;20292;-80
2022/07/16 06:13:36;;;;;;;7.33;3.33;;;;;;;31.53;23.92;99924.03;4992396;28;20217;-80
2022/07/16 06:16:02;;;;;;;3.67;3.37;;;;;;;31.77;23.89;99918.72;4976842;28;20284;-80
2022/07/16 06:18:28;;;;;;;4.10;3.07;;;;;;;31.83;23.31;99920.53;4975099;28;20468;-81
2022/07/16 06:20:53;;;;;;;4.80;3.47;;;;;;;31.83;23.16;99917.81;4975221;28;20237;-79
2022/07/16 06:23:18;;;;;;;6.90;3.50;;;;;;;32.07;23.24;99917.94;4984740;28;20297;-80
2022/07/16 06:25:44;;;;;;;3.40;3.10;;;;;;;32.28;22.57;99919.31;4977519;28;20214;-80
2022/07/16 06:28:09;;;;;;;5.13;3.90;;;;;;;32.34;22.94;99919.19;4974079;28;20462;-79
2022/07/16 06:30:35;;;;;;;4.33;3.30;;;;;;;32.16;22.98;99916.53;4974127;28;20229;-81
2022/07/16 06:33:00;;;;;;;5.00;3.03;;;;;;;31.78;23.20;99925.81;4988293;28;20211;-80
2022/07/16 06:35:26;;;;;;;4.67;4.23;;;;;;;32.01;22.74;99929.75;4975267;28;20262;-80
2022/07/16 06:37:51;;;;;;;4.27;3.50;;;;;;;32.26;22.48;99921.44;4992829;28;20245;-81
2022/07/16 06:40:17;;;;;;;3.60;3.30;;;;;;;32.51;22.38;99924.81;4993334;28;20739;-79
2022/07/16 06:42:43;;;;;;;3.40;3.00;;;;;;;32.75;22.16;99920.22;4985373;28;20220;-79
2022/07/16 06:45:09;;;;;;;4.33;3.20;;;;;;;32.81;22.35;99919.31;4973719;28;20870;-78
2022/07/16 06:47:35;;;;;;;5.10;3.27;;;;;;;32.64;22.72;99928.38;4973390;28;20218;-81
2022/07/16 06:50:00;;;;;;;3.77;3.43;;;;;;;32.56;22.68;99924.94;4973887;28;20520;-80
2022/07/16 06:52:26;;;;;;;5.10;4.70;;;;;;;32.65;22.12;99925.44;4979836;28;20590;-80
2022/07/16 06:54:51;;;;;;;3.90;3.50;;;;;;;32.52;22.41;99925.66;4990919;28;20209;-80
2022/07/16 06:57:18;;;;;;;2.90;2.70;;;;;;;32.80;22.09;99925.78;4991275;28;20240;-79
2022/07/16 06:59:44;;;;;;;4.27;3.40;;;;;;;33.26;21.92;99929.59;4990790;28;20213;-80
2022/07/16 07:02:10;;;;;;;4.07;3.67;;;;;;;33.35;21.67;99932.81;5005284;23;21254;-78
2022/07/16 07:04:35;;;;;;;4.33;3.87;;;;;;;33.42;21.50;99932.66;5006501;28;20473;-78
2022/07/16 07:07:00;;;;;;;4.97;3.20;;;;;;;33.04;21.71;99934.00;5002716;28;20307;-79
2022/07/16 07:09:26;;;;;;;4.23;3.40;;;;;;;33.09;21.91;99936.84;4996469;28;20250;-78
2022/07/16 07:11:51;;;;;;;5.20;3.67;;;;;;;33.20;21.52;99932.47;5002627;28;20251;-78
2022/07/16 07:14:17;;;;;;;6.50;3.47;;;;;;;33.18;21.80;99934.59;4993619;28;20320;-78
2022/07/16 07:16:42;;;;;;;3.57;3.27;;;;;;;32.55;22.11;99934.19;5002662;28;20301;-79
2022/07/16 07:19:07;;;;;;;4.37;3.17;;;;;;;32.75;21.97;99931.13;5000413;28;20228;-79
2022/07/16 07:21:33;;;;;;;5.70;3.40;;;;;;;32.96;22.18;99932.44;4989959;28;20364;-78
2022/07/16 07:23:58;;;;;;;3.17;2.90;;;;;;;32.67;22.75;99931.47;5002318;28;20671;-78
2022/07/16 07:26:24;;;;;;;3.77;3.17;;;;;;;32.91;21.96;99928.75;4991681;28;20541;-78
2022/07/16 07:28:49;;;;;;;6.40;3.27;;;;;;;33.00;22.11;99928.22;5007904;28;20205;-79
2022/07/16 07:31:14;;;;;;;6.10;3.27;;;;;;;33.17;21.88;99930.22;5001268;28;20310;-78
2022/07/16 07:33:40;;;;;;;4.50;4.10;;;;;;;33.65;21.54;99932.63;4988817;28;20848;-79
2022/07/16 07:36:05;;;;;;;3.77;3.47;;;;;;;33.95;21.29;99923.41;5002848;28;20228;-79
2022/07/16 07:38:31;;;;;;;4.20;3.20;;;;;;;34.06;21.06;99930.72;4995991;28;20218;-79
2022/07/16 07:40:59;;;;;;;3.77;3.40;;;;;;;33.63;21.29;99931.22;4989559;28;20342;-79
2022/07/16 07:43:24;;;;;;;5.50;4.00;;;;;;;33.46;21.42;99920.22;5003412;28;20487;-80
2022/07/16 07:45:50;;;;;;;4.93;3.40;;;;;;;33.50;21.57;99916.75;5002531;28;20601;-79
2022/07/16 07:48:16;;;;;;;4.10;2.83;;;;;;;33.82;21.32;99921.78;4995812;28;20455;-79
2022/07/16 07:50:41;;;;;;;3.70;3.40;;;;;;;34.43;20.50;99913.09;5002034;28;20328;-78
2022/07/16 07:53:07;;;;;;;4.50;3.50;;;;;;;34.43;20.42;99919.41;4998233;28;20200;-79
2022/07/16 07:55:32;;;;;;;5.23;3.30;;;;;;;33.92;20.86;99924.72;4990362;28;20653;-78
2022/07/16 07:57:58;;;;;;;5.10;3.13;;;;;;;33.66;21.16;99919.84;5002842;28;20220;-78
2022/07/16 08:00:24;;;;;;;3.87;3.17;;;;;;;33.68;20.99;99923.97;4999574;28;20225;-78
2022/07/16 08:02:49;;;;;;;4.38;3.60;;;;;;;33.69;20.78;99919.34;4977650;28;21020;-78
2022/07/16 08:05:16;;;;;;;3.53;3.20;;;;;;;33.97;20.47;99913.06;5001976;28;20211;-78
2022/07/16 08:07:42;;;;;;;11.43;3.27;;;;;;;34.21;20.17;99916.53;5002086;28;20212;-78
2022/07/16 08:10:08;;;;;;;3.43;3.13;;;;;;;34.02;20.36;99918.63;4991862;28;20452;-78
2022/07/16 08:12:35;;;;;;;4.50;3.30;;;;;;;34.28;20.12;99914.50;4993346;28;20448;-78
2022/07/16 08:15:01;;;;;;;3.30;3.00;;;;;;;34.11;20.27;99910.94;4996158;28;20481;-79
2022/07/16 08:17:26;;;;;;;3.57;3.27;;;;;;;34.33;20.22;99925.50;5001004;28;21045;-78
2022/07/16 08:19:52;;;;;;;4.23;3.17;;;;;;;34.43;19.95;99924.00;5003467;28;20212;-79
2022/07/16 08:22:17;;;;;;;5.40;3.43;;;;;;;34.42;19.98;99925.91;5004328;28;20240;-78
2022/07/16 08:27:26;;;;;;;6.33;3.80;;;;;;;33.99;20.37;99923.75;5002092;28;20622;-78
2022/07/16 08:29:52;;;;;;;4.20;2.70;;;;;;;34.00;20.54;99914.47;4992485;28;20607;-78
2022/07/16 08:32:17;;;;;;;3.90;3.50;;;;;;;33.92;20.80;99913.00;4990382;28;20213;-79
2022/07/16 08:34:43;;;;;;;3.40;3.10;;;;;;;33.24;21.51;99918.13;4996366;28;20287;-77
2022/07/16 08:37:09;;;;;;;2.80;2.60;;;;;;;31.92;23.28;99926.50;4995348;28;20732;-78
2022/07/16 08:39:42;;;;;;;4.53;3.20;;;;;;;30.69;24.77;99928.19;4995406;28;20209;-78
2022/07/16 08:42:10;;;;;;;4.17;3.87;;;;;;;29.91;25.63;99931.16;4985922;28;20474;-73
2022/07/16 08:44:38;;;;;;;6.10;3.53;;;;;;;29.58;26.28;99931.28;4993903;28;20455;-78
2022/07/16 08:47:03;;;;;;;3.90;3.40;;;;;;;29.33;26.94;99924.72;4988096;28;20468;-78
2022/07/16 08:49:29;;;;;;;2.77;2.50;;;;;;;29.34;27.15;99923.66;4988056;28;20544;-78
2022/07/16 08:52:00;;;;;;;4.13;3.30;;;;;;;29.24;27.16;99923.25;4996736;28;20308;-78
2022/07/16 08:54:28;;;;;;;3.40;2.87;;;;;;;29.16;27.45;99928.91;4988175;28;20209;-78
2022/07/16 08:56:54;;;;;;;5.27;3.40;;;;;;;29.13;27.22;99934.72;4987961;28;21152;-79
2022/07/16 08:59:19;;;;;;;4.60;3.17;;;;;;;29.05;27.30;99932.25;4990494;28;20728;-79
2022/07/16 09:01:45;;;;;;;3.67;3.10;;;;;;;29.02;27.16;99930.75;4994165;28;20584;-77
2022/07/16 09:04:11;;;;;;;3.40;2.73;;;;;;;29.09;27.02;99936.22;4999408;28;20205;-79
2022/07/16 09:06:36;;;;;;;8.00;3.50;;;;;;;28.90;26.88;99933.28;4988607;28;20201;-78
2022/07/16 09:09:02;;;;;;;3.87;3.00;;;;;;;28.88;27.22;99929.94;4987939;28;20570;-78
2022/07/16 09:11:31;;;;;;;7.97;3.93;;;;;;;29.03;26.89;99926.19;4987804;28;20229;-77
2022/07/16 09:14:00;;;;;;;5.47;3.40;;;;;;;29.16;26.76;99925.38;4988032;28;20205;-78
2022/07/16 09:16:32;;;;;;;5.57;3.73;;;;;;;29.10;26.79;99929.75;4987738;28;20492;-78
2022/07/16 09:19:05;;;;;;;3.80;3.50;;;;;;;29.06;26.41;99931.22;4987841;28;20456;-78
2022/07/16 09:21:32;;;;;;;3.87;3.13;;;;;;;29.01;26.49;99921.00;4989817;28;20538;-78
2022/07/16 09:23:58;;;;;;;3.70;3.33;;;;;;;29.02;26.35;99927.22;4991403;28;20456;-79
2022/07/16 09:26:26;;;;;;;4.07;3.67;;;;;;;28.97;26.01;99927.84;4987879;28;20964;-79
2022/07/16 09:28:52;;;;;;;3.37;3.10;;;;;;;28.93;25.84;99923.91;5000282;28;20240;-78
2022/07/16 09:31:34;;;;;;;5.43;3.03;;;;;;;28.78;25.97;99929.53;4994436;28;21042;-77
2022/07/16 09:34:02;;;;;;;3.80;3.40;;;;;;;28.85;26.05;99924.97;5004319;28;20502;-77
2022/07/16 09:36:28;;;;;;;8.30;3.70;;;;;;;29.06;25.42;99934.75;5009874;28;20697;-79
2022/07/16 09:38:53;;;;;;;3.57;3.33;;;;;;;29.32;25.07;99930.31;5010006;28;20512;-78
2022/07/16 09:41:20;;;;;;;5.63;3.43;;;;;;;29.32;25.25;99924.91;5008789;28;20782;-78
2022/07/16 09:43:46;;;;;;;3.47;3.00;;;;;;;29.24;25.12;99922.44;4993321;28;20212;-78
2022/07/16 09:46:17;;;;;;;6.80;3.43;;;;;;;29.28;25.29;99921.81;5001546;28;20450;-78
2022/07/16 09:48:44;;;;;;;4.10;2.67;;;;;;;29.54;25.23;99920.03;4990631;28;20452;-79
2022/07/16 09:51:26;;;;;;;3.50;2.87;;;;;;;29.66;24.91;99914.84;4991098;28;20865;-79
2022/07/16 09:53:53;;;;;;;5.63;2.70;;;;;;;29.71;24.91;99923.16;4990832;28;20467;-78
2022/07/16 09:56:21;;;;;;;3.73;2.83;;;;;;;29.78;24.76;99911.22;4990667;28;20488;-79
2022/07/16 09:58:52;;;;;;;3.47;3.17;;;;;;;29.71;24.70;99915.03;4997245;28;20518;-78
2022/07/16 10:01:19;;;;;;;4.73;4.03;;;;;;;29.78;24.11;99911.22;4996914;28;20476;-79
2022/07/16 10:03:46;;;;;;;6.33;3.53;;;;;;;30.00;24.18;99921.72;4990751;28;20995;-78
2022/07/16 10:06:12;;;;;;;4.33;3.10;;;;;;;30.22;23.76;99919.53;4991266;28;20538;-80
2022/07/16 10:08:39;;;;;;;3.70;3.07;;;;;;;30.14;23.95;99917.91;5001437;28;20467;-78
2022/07/16 10:11:05;;;;;;;3.10;2.90;;;;;;;30.18;23.83;99927.25;4992464;28;21267;-78
2022/07/16 10:13:33;;;;;;;3.13;2.83;;;;;;;30.29;24.03;99916.81;4990536;28;20964;-79
2022/07/16 10:15:59;;;;;;;4.70;3.27;;;;;;;30.36;23.74;99917.59;4990726;28;21074;-78
2022/07/16 10:18:44;;;;;;;3.77;2.90;;;;;;;30.28;23.81;99915.16;4973003;28;20909;-78
2022/07/16 10:21:22;;;;;;;3.73;3.03;;;;;;;30.38;23.99;99920.91;5008812;28;20519;-78
2022/07/16 10:24:04;;;;;;;3.13;2.77;;;;;;;30.48;23.36;99915.81;4985093;28;20478;-78
2022/07/16 10:26:32;;;;;;;4.30;2.87;;;;;;;30.55;23.08;99908.47;4990504;28;20479;-79
2022/07/16 10:28:58;;;;;;;4.63;2.57;;;;;;;30.58;23.52;99915.34;5005506;28;20468;-77
2022/07/16 10:34:35;;;;;;;3.00;2.70;;;;;;;30.64;23.07;99909.84;4985199;28;20603;-78
2022/07/16 10:37:02;;;;;;;3.77;2.40;;;;;;;30.73;23.10;99907.72;5003702;28;20483;-78
2022/07/16 10:39:28;;;;;;;3.43;2.40;;;;;;;30.64;23.07;99906.31;5008890;28;21021;-78
2022/07/16 10:41:59;;;;;;;2.97;2.67;;;;;;;30.63;23.41;99905.50;5003415;28;20480;-78
2022/07/16 10:44:49;;;;;;;2.50;2.30;;;;;;;30.67;22.67;99908.56;5001130;28;20205;-78
2022/07/16 10:47:17;;;;;;;4.07;1.97;;;;;;;30.59;22.91;99906.16;4990171;28;20519;-78
2022/07/16 10:49:43;;;;;;;3.67;2.70;;;;;;;30.57;22.89;99910.94;4989868;28;20448;-78
2022/07/16 10:52:14;;;;;;;7.70;2.50;;;;;;;30.40;22.97;99908.78;4989734;28;20906;-78
2022/07/16 10:54:58;;;;;;;3.27;2.97;;;;;;;30.49;22.80;99900.38;5000910;28;20463;-79
2022/07/16 10:57:35;;;;;;;5.57;2.63;;;;;;;30.52;23.07;99895.38;5008983;28;20537;-79
2022/07/16 11:00:04;;;;;;;7.83;2.63;;;;;;;30.56;22.85;99902.00;5009701;28;20490;-78
2022/07/16 11:02:37;;;;;;;4.20;2.33;;;;;;;30.56;23.04;99907.41;4976574;28;20507;-79
2022/07/16 11:05:02;;;;;;;2.67;2.30;;;;;;;30.51;22.74;99901.81;4989772;28;20464;-78
2022/07/16 11:07:33;;;;;;;2.63;2.40;;;;;;;30.22;22.86;99903.28;4998162;28;21032;-78
2022/07/16 11:09:59;;;;;;;2.83;2.50;;;;;;;29.98;23.05;99902.19;5006585;28;20339;-78
2022/07/16 11:12:27;;;;;;;2.70;2.50;;;;;;;29.81;23.24;99903.72;4994635;28;20582;-79
2022/07/16 11:14:55;;;;;;;3.27;2.37;;;;;;;29.82;23.35;99895.41;5000059;28;20213;-78
2022/07/16 11:17:24;;;;;;;2.87;2.60;;;;;;;29.85;23.49;99903.09;4990640;28;20693;-79
2022/07/16 11:19:55;;;;;;;3.30;3.00;;;;;;;29.86;23.25;99896.59;4999587;28;20816;-79
2022/07/16 11:22:26;;;;;;;2.80;1.90;;;;;;;29.92;23.06;99894.91;4998511;28;20553;-79
2022/07/16 11:24:54;;;;;;;3.27;2.97;;;;;;;29.86;23.24;99898.50;5005702;28;20467;-77
2022/07/16 11:27:31;;;;;;;2.43;2.23;;;;;;;29.69;23.45;99890.03;5001991;28;20452;-79
2022/07/16 11:29:58;;;;;;;3.80;2.57;;;;;;;29.76;23.37;99890.84;4993557;28;20814;-79
2022/07/16 11:32:25;;;;;;;2.10;1.90;;;;;;;29.92;23.45;99898.47;4992085;28;20486;-78
2022/07/16 11:34:50;;;;;;;3.07;2.40;;;;;;;29.73;23.60;99892.13;5003144;28;20996;-78
2022/07/16 11:37:16;;;;;;;4.70;2.50;;;;;;;29.41;23.79;99896.59;5005615;28;20583;-78
2022/07/16 11:39:42;;;;;;;5.37;3.17;;;;;;;29.44;24.16;99888.03;5002098;28;20215;-78